Main page
METAR-TAF:

METAR-TAF

Airports :

Tashkent, Uzbekistan

Tashkent International Airport

latitude: 41-16N, longitude: 069-16E, elevation: 489 m

Current weather observation

The report was made 43 minutes ago, at 03:00 UTC
Wind 8 kt from the East
Temperature 21°C
Humidity 38%
Pressure 1014 hPa
Visibility 10 km or more
no clouds below 1500 m and no cumulonimbus

METAR: UTTT 200300Z 09008KT CAVOK 21/06 Q1014 R08R/CLRD70 NOSIG

Time: 08:43 (03:43 UTC)

Forecast

The report was made 4 hours and 43 minutes ago, at 23:00 UTC
Forecast valid from 20 at 00 UTC to 20 at 24 UTC
Wind 12 kt from the East/Northeast
Visibility: 7000 m

TAF: UTTT 192300Z 2000/2024 07012KT 7000 NSC

Weather observations and forecasts of more than 4000 airports (METAR and TAF reports).

The available stations are represented by yellow and red dots on the map.

Hover mouse over dot to see the name of the station.

Then click to see weather observations and forecasts.

To change the map : click on the green buttons with a black cross to zoom in, on the green button with a dash to zoom out, or on the green arrows for adjacent maps.


METAR-TAF: